Time;durP1;ratioP1;P1;durP2;ratioP2;P2;SDS_P1;SDS_P2;PMS_P1;PMS_P2;Temp;Humidity;BMP_temperature;BMP_pressure;BME280_temperature;BME280_humidity;BME280_pressure;Samples;Min_cycle;Max_cycle;Signal;HPM_P1;HPM_P2
2022/01/13 00:00:19;;;;;;;6.80;3.45;;;10.20;94.40;;;;;;5096228;28;20397;-62
2022/01/13 00:02:46;;;;;;;7.63;4.28;;;10.20;94.30;;;;;;5091489;28;20154;-62
2022/01/13 00:05:17;;;;;;;8.88;4.32;;;10.20;94.10;;;;;;5109641;27;20063;-63
2022/01/13 00:07:45;;;;;;;7.50;4.57;;;10.20;94.00;;;;;;5098701;28;20101;-62
2022/01/13 00:10:13;;;;;;;8.52;3.95;;;10.20;94.00;;;;;;5111172;28;20039;-63
2022/01/13 00:12:43;;;;;;;5.97;3.65;;;10.20;93.90;;;;;;5107759;28;20044;-62
2022/01/13 00:17:57;;;;;;;7.55;3.83;;;10.20;94.00;;;;;;5085672;28;20036;-62
2022/01/13 00:25:54;;;;;;;6.30;3.35;;;10.10;93.80;;;;;;5091171;28;20418;-61
2022/01/13 00:28:23;;;;;;;6.25;4.07;;;10.10;93.70;;;;;;5101719;27;20051;-62
2022/01/13 00:30:54;;;;;;;6.95;5.22;;;10.00;93.50;;;;;;5096918;28;20337;-63
2022/01/13 00:33:25;;;;;;;8.68;4.85;;;10.00;93.50;;;;;;5096335;28;20035;-62
2022/01/13 00:35:55;;;;;;;8.73;4.78;;;10.00;93.50;;;;;;5096170;28;20048;-63
2022/01/13 00:38:23;;;;;;;6.50;3.88;;;10.00;93.40;;;;;;5085570;27;20047;-62
2022/01/13 00:40:50;;;;;;;7.07;4.15;;;10.00;93.30;;;;;;5115975;27;20089;-62
2022/01/13 00:43:18;;;;;;;6.00;3.72;;;10.00;93.10;;;;;;5095411;28;20067;-61
2022/01/13 00:45:48;;;;;;;6.68;3.85;;;9.90;92.90;;;;;;5112619;28;20034;-62
2022/01/13 00:48:16;;;;;;;6.68;4.20;;;9.90;92.80;;;;;;5079439;28;20048;-62
2022/01/13 00:50:44;;;;;;;8.65;3.20;;;9.90;92.70;;;;;;5094839;28;20554;-62
2022/01/13 00:53:12;;;;;;;6.00;3.83;;;9.90;92.60;;;;;;5089862;28;20134;-61
2022/01/13 00:55:49;;;;;;;6.85;4.20;;;9.90;92.50;;;;;;5109492;28;20135;-63
2022/01/13 00:58:17;;;;;;;6.40;3.17;;;9.90;92.50;;;;;;5093647;28;20469;-62
2022/01/13 01:00:46;;;;;;;5.70;3.67;;;9.90;92.70;;;;;;5119748;27;20035;-62
2022/01/13 01:03:13;;;;;;;8.98;3.33;;;9.90;92.90;;;;;;5106285;27;20122;-62
2022/01/13 01:05:41;;;;;;;7.63;3.45;;;9.80;93.20;;;;;;5095856;28;20097;-61
2022/01/13 01:08:09;;;;;;;7.00;3.95;;;9.90;93.50;;;;;;5096588;28;20473;-62
2022/01/13 01:10:38;;;;;;;5.53;3.33;;;9.90;93.70;;;;;;5060550;28;20578;-62
2022/01/13 01:13:12;;;;;;;6.38;3.38;;;9.90;93.80;;;;;;5080605;28;20044;-63
2022/01/13 01:15:45;;;;;;;5.20;3.28;;;9.80;93.80;;;;;;5080853;28;20035;-62
2022/01/13 01:18:25;;;;;;;6.35;3.47;;;9.80;93.90;;;;;;5097465;28;20473;-62
2022/01/13 01:23:37;;;;;;;6.70;3.40;;;9.80;94.00;;;;;;5076385;28;20048;-62
2022/01/13 01:31:49;;;;;;;5.93;3.78;;;9.70;94.40;;;;;;5086348;28;20509;-62
2022/01/13 01:36:59;;;;;;;7.15;3.95;;;9.70;94.40;;;;;;5094779;28;20047;-62
2022/01/13 01:39:27;;;;;;;7.30;3.58;;;9.70;94.50;;;;;;5076594;28;20051;-62
2022/01/13 01:41:56;;;;;;;12.75;3.67;;;9.70;94.50;;;;;;5090234;28;20044;-62
2022/01/13 01:44:30;;;;;;;10.57;4.43;;;9.70;94.50;;;;;;5094230;28;20441;-62
2022/01/13 01:47:00;;;;;;;8.23;3.75;;;9.60;94.50;;;;;;5075774;28;20406;-63
2022/01/13 01:49:30;;;;;;;8.50;3.67;;;9.50;94.70;;;;;;5076026;28;20036;-62
2022/01/13 01:52:01;;;;;;;11.35;3.42;;;9.60;94.70;;;;;;5059425;28;20090;-62
2022/01/13 01:54:29;;;;;;;6.03;3.30;;;9.60;94.70;;;;;;5075302;28;20048;-63
2022/01/13 01:56:59;;;;;;;11.60;4.60;;;9.60;94.60;;;;;;5050077;28;20055;-63
2022/01/13 01:59:30;;;;;;;7.28;3.25;;;9.60;94.50;;;;;;5113516;28;20046;-61
2022/01/13 02:01:59;;;;;;;4.40;2.78;;;9.60;94.50;;;;;;5113768;28;20040;-62
2022/01/13 02:04:27;;;;;;;6.50;3.92;;;9.60;94.40;;;;;;5095453;28;20031;-62
2022/01/13 02:06:56;;;;;;;9.00;3.58;;;9.60;94.30;;;;;;5085544;28;20032;-62
2022/01/13 02:09:24;;;;;;;6.90;3.22;;;9.60;94.10;;;;;;5075955;28;20367;-61
2022/01/13 02:11:56;;;;;;;6.68;3.83;;;9.50;94.00;;;;;;5075423;28;20044;-62
2022/01/13 02:16:56;;;;;;;8.85;3.40;;;9.50;93.90;;;;;;5075276;28;20059;-63
2022/01/13 02:19:25;;;;;;;6.65;3.83;;;9.40;93.80;;;;;;5058878;28;20071;-62
2022/01/13 02:21:53;;;;;;;9.48;3.20;;;9.40;94.00;;;;;;5075205;28;20401;-62
2022/01/13 02:24:21;;;;;;;5.15;2.78;;;9.40;93.80;;;;;;5058226;28;20043;-64
2022/01/13 02:26:48;;;;;;;5.85;3.00;;;9.40;93.90;;;;;;5092922;28;20068;-61
2022/01/13 02:29:16;;;;;;;7.32;3.50;;;9.40;93.90;;;;;;5074788;28;20040;-62
2022/01/13 02:31:43;;;;;;;6.03;4.18;;;9.40;93.90;;;;;;5092243;28;20075;-63
2022/01/13 02:34:11;;;;;;;7.72;3.90;;;9.40;93.80;;;;;;5073492;28;20116;-62
2022/01/13 02:36:41;;;;;;;6.95;4.18;;;9.40;93.70;;;;;;5074410;28;20066;-62
2022/01/13 02:39:08;;;;;;;8.10;3.20;;;9.40;93.80;;;;;;5075314;28;20131;-62
2022/01/13 02:41:36;;;;;;;6.60;2.80;;;9.40;93.90;;;;;;5075326;28;20085;-62
2022/01/13 02:44:11;;;;;;;7.70;3.47;;;9.40;93.70;;;;;;5075306;28;20051;-62
2022/01/13 02:49:09;;;;;;;7.53;4.35;;;9.40;93.90;;;;;;5058545;28;20134;-64
2022/01/13 02:51:40;;;;;;;7.90;3.55;;;9.40;93.90;;;;;;5093097;28;20047;-62
2022/01/13 02:54:08;;;;;;;5.53;2.80;;;9.40;94.00;;;;;;5058661;28;20063;-62
2022/01/13 02:56:36;;;;;;;9.23;3.30;;;9.40;94.00;;;;;;5075167;28;20154;-62
2022/01/13 02:59:05;;;;;;;5.45;3.35;;;9.40;94.10;;;;;;5092857;28;20565;-62
2022/01/13 03:01:34;;;;;;;7.50;3.05;;;9.40;94.20;;;;;;5074935;28;20135;-62
2022/01/13 03:04:06;;;;;;;6.45;4.25;;;9.40;94.30;;;;;;5058158;28;20063;-62
2022/01/13 03:06:36;;;;;;;8.38;3.80;;;9.30;94.40;;;;;;5092949;28;20071;-62
2022/01/13 03:09:08;;;;;;;9.20;5.00;;;9.30;94.40;;;;;;5092586;28;20044;-62
2022/01/13 03:11:37;;;;;;;7.55;4.45;;;9.30;94.40;;;;;;5074485;28;20044;-62
2022/01/13 03:14:08;;;;;;;12.80;3.67;;;9.30;94.40;;;;;;5074743;28;20036;-63
2022/01/13 03:16:38;;;;;;;8.75;3.95;;;9.20;94.50;;;;;;5092615;28;20051;-62
2022/01/13 03:19:06;;;;;;;6.57;3.88;;;9.20;94.40;;;;;;5074667;28;20040;-62
2022/01/13 03:21:33;;;;;;;8.30;3.20;;;9.20;94.40;;;;;;5097691;28;20043;-62
2022/01/13 03:24:05;;;;;;;13.70;4.63;;;9.20;94.30;;;;;;5073711;28;20052;-62
2022/01/13 03:26:32;;;;;;;9.43;3.60;;;9.20;94.30;;;;;;5057538;28;20110;-61
2022/01/13 03:31:40;;;;;;;5.35;2.95;;;9.10;94.30;;;;;;5074896;28;20067;-63
2022/01/13 03:34:08;;;;;;;8.40;3.67;;;9.20;94.10;;;;;;5074698;28;20143;-62
2022/01/13 03:36:36;;;;;;;6.50;3.75;;;9.10;94.10;;;;;;5057913;28;20567;-62
2022/01/13 03:39:07;;;;;;;7.68;4.00;;;9.10;94.10;;;;;;5074771;28;20052;-62
2022/01/13 03:41:36;;;;;;;7.50;4.55;;;9.10;94.10;;;;;;5075102;28;20040;-62
2022/01/13 03:44:07;;;;;;;7.97;3.97;;;9.00;94.10;;;;;;5062301;28;20432;-62
2022/01/13 03:46:37;;;;;;;7.50;3.60;;;9.10;94.10;;;;;;5078431;28;20051;-62
2022/01/13 03:49:09;;;;;;;6.65;3.58;;;9.00;94.10;;;;;;5061901;28;20044;-62
2022/01/13 03:51:57;;;;;;;7.03;3.10;;;9.00;94.20;;;;;;5078381;28;20104;-62
2022/01/13 03:54:34;;;;;;;8.48;3.22;;;8.90;94.30;;;;;;5095114;28;20052;-62
2022/01/13 03:57:18;;;;;;;5.55;3.10;;;9.00;94.50;;;;;;5061765;28;20044;-61
2022/01/13 04:00:41;;;;;;;6.90;3.85;;;9.00;94.50;;;;;;5061525;28;20505;-62
2022/01/13 04:03:09;;;;;;;7.85;4.22;;;9.00;94.60;;;;;;5095020;28;20391;-61
2022/01/13 04:05:59;;;;;;;7.25;4.38;;;9.00;94.60;;;;;;5077379;28;20052;-61
2022/01/13 04:08:27;;;;;;;13.18;4.63;;;8.90;94.60;;;;;;5060908;28;20048;-61
2022/01/13 04:11:12;;;;;;;5.57;3.40;;;9.00;94.60;;;;;;5061473;28;20048;-61
2022/01/13 04:16:15;;;;;;;7.03;4.25;;;9.00;94.60;;;;;;5077966;28;20054;-62
2022/01/13 04:18:44;;;;;;;7.32;3.83;;;9.00;94.60;;;;;;5095752;28;20047;-61
2022/01/13 04:21:12;;;;;;;5.13;3.72;;;9.00;94.60;;;;;;5095776;28;20042;-61
2022/01/13 04:23:40;;;;;;;8.43;3.28;;;8.90;94.50;;;;;;5057248;28;20044;-61
2022/01/13 04:26:08;;;;;;;10.57;4.35;;;8.90;94.60;;;;;;5098140;28;20390;-61
2022/01/13 04:28:37;;;;;;;9.30;3.35;;;8.90;94.70;;;;;;5088905;28;20425;-61
2022/01/13 04:31:04;;;;;;;9.05;3.70;;;8.90;94.60;;;;;;5060979;28;20044;-62
2022/01/13 04:33:34;;;;;;;7.38;3.75;;;8.90;94.50;;;;;;5095485;28;20058;-61
2022/01/13 04:36:04;;;;;;;5.00;3.17;;;9.00;94.60;;;;;;5077394;28;20078;-61
2022/01/13 04:38:31;;;;;;;7.72;3.63;;;8.90;94.50;;;;;;5077386;28;20440;-62
2022/01/13 04:41:01;;;;;;;9.07;3.30;;;8.90;94.50;;;;;;5077226;28;20119;-62
2022/01/13 04:43:31;;;;;;;7.00;3.60;;;8.90;94.50;;;;;;5095173;28;20109;-62
2022/01/13 04:45:58;;;;;;;4.10;2.78;;;8.90;94.50;;;;;;5077500;28;20070;-61
2022/01/13 04:48:26;;;;;;;7.03;3.47;;;8.90;94.40;;;;;;5077266;28;20048;-62
2022/01/13 04:50:54;;;;;;;6.88;2.97;;;8.90;94.30;;;;;;5095134;28;20109;-61
2022/01/13 04:53:22;;;;;;;7.05;4.10;;;8.80;94.20;;;;;;5076433;28;20044;-61
2022/01/13 04:55:52;;;;;;;11.27;3.92;;;8.80;94.20;;;;;;5059690;28;20497;-61
2022/01/13 04:58:21;;;;;;;5.05;3.13;;;8.80;94.10;;;;;;5059794;28;20055;-62
2022/01/13 05:00:49;;;;;;;5.40;3.13;;;8.80;94.00;;;;;;5094697;28;20046;-62
2022/01/13 05:03:17;;;;;;;7.15;3.50;;;8.80;93.90;;;;;;5059599;28;20044;-62
2022/01/13 05:05:44;;;;;;;5.28;3.97;;;8.70;93.80;;;;;;5047799;28;20110;-62
2022/01/13 05:08:12;;;;;;;7.10;3.60;;;8.80;93.80;;;;;;5071233;28;20040;-62
2022/01/13 05:10:39;;;;;;;6.25;3.10;;;8.80;93.70;;;;;;5059808;28;20886;-62
2022/01/13 05:13:09;;;;;;;6.80;3.88;;;8.70;93.60;;;;;;5072360;28;20051;-61
2022/01/13 05:15:39;;;;;;;8.32;3.65;;;8.70;93.40;;;;;;5077031;28;20071;-63
2022/01/13 05:21:04;;;;;;;5.50;2.83;;;8.70;93.00;;;;;;5092372;28;20046;-63
2022/01/13 05:23:32;;;;;;;6.37;3.43;;;8.70;92.60;;;;;;5078491;28;20076;-62
2022/01/13 05:26:01;;;;;;;8.77;3.65;;;8.60;92.50;;;;;;5093960;28;20066;-62
2022/01/13 05:28:29;;;;;;;7.18;3.75;;;8.60;92.30;;;;;;5108949;27;20853;-63
2022/01/13 05:30:56;;;;;;;6.53;3.72;;;8.60;92.00;;;;;;5091424;28;20036;-62
2022/01/13 05:33:24;;;;;;;7.18;4.45;;;8.60;91.80;;;;;;5094931;28;20453;-62
2022/01/13 05:35:51;;;;;;;5.97;3.28;;;8.60;91.70;;;;;;5110409;28;20046;-62
2022/01/13 05:38:19;;;;;;;14.85;4.57;;;8.60;91.70;;;;;;5107238;28;20126;-63
2022/01/13 05:40:46;;;;;;;5.50;2.88;;;8.60;91.90;;;;;;5074354;28;20036;-63
2022/01/13 05:43:14;;;;;;;8.65;3.13;;;8.60;92.00;;;;;;5087369;28;20046;-62
2022/01/13 05:45:41;;;;;;;6.85;3.50;;;8.60;92.20;;;;;;5069314;28;20501;-62
2022/01/13 05:48:09;;;;;;;8.95;3.72;;;8.60;92.50;;;;;;5093838;27;20069;-62
2022/01/13 05:50:36;;;;;;;6.15;3.53;;;8.50;92.90;;;;;;5121473;27;20121;-61
2022/01/13 05:53:05;;;;;;;9.38;4.70;;;8.50;93.10;;;;;;5091425;28;20097;-63
2022/01/13 05:55:34;;;;;;;7.75;4.15;;;8.50;93.30;;;;;;5060708;28;20056;-63
2022/01/13 05:58:02;;;;;;;7.78;4.25;;;8.50;93.40;;;;;;5082144;28;20043;-62
2022/01/13 06:00:33;;;;;;;7.55;3.60;;;8.40;93.60;;;;;;5088391;28;20056;-62
2022/01/13 06:03:01;;;;;;;9.40;4.60;;;8.50;93.60;;;;;;5090658;28;20040;-62
2022/01/13 06:05:29;;;;;;;12.98;4.15;;;8.50;93.50;;;;;;5076457;28;20168;-61
2022/01/13 06:07:57;;;;;;;8.18;5.22;;;8.50;93.40;;;;;;5090955;28;20055;-64
2022/01/13 06:10:24;;;;;;;9.43;4.10;;;8.50;93.20;;;;;;5111516;27;20110;-62
2022/01/13 06:12:53;;;;;;;9.15;3.80;;;8.50;93.10;;;;;;5073231;27;20126;-62
2022/01/13 06:15:24;;;;;;;6.75;3.42;;;8.50;92.90;;;;;;5077163;28;20077;-62
2022/01/13 06:17:55;;;;;;;9.07;4.45;;;8.50;92.80;;;;;;5094232;28;20092;-62
2022/01/13 06:20:23;;;;;;;9.10;3.58;;;8.50;92.60;;;;;;5060447;28;20054;-62
2022/01/13 06:22:52;;;;;;;9.80;4.90;;;8.60;92.20;;;;;;5076253;28;20044;-62
2022/01/13 06:25:20;;;;;;;6.82;3.53;;;8.80;91.80;;;;;;5074856;28;20534;-61
2022/01/13 06:27:48;;;;;;;11.55;4.85;;;9.10;91.20;;;;;;5085956;28;20047;-61
2022/01/13 06:30:30;;;;;;;5.20;3.10;;;9.50;90.60;;;;;;5072865;28;20075;-63
2022/01/13 06:32:58;;;;;;;7.53;3.75;;;10.00;89.60;;;;;;5092350;28;20482;-61
2022/01/13 06:35:26;;;;;;;9.15;3.88;;;10.40;88.20;;;;;;5091728;28;20071;-63
2022/01/13 06:37:53;;;;;;;6.75;3.00;;;11.00;86.50;;;;;;5092198;28;20055;-62
2022/01/13 06:40:21;;;;;;;7.50;4.57;;;11.50;85.10;;;;;;5073986;28;20040;-62
2022/01/13 06:42:48;;;;;;;5.32;3.22;;;12.20;83.40;;;;;;5074188;28;20047;-62
2022/01/13 06:45:16;;;;;;;4.60;3.05;;;12.80;82.10;;;;;;5073458;28;20039;-62
2022/01/13 06:47:43;;;;;;;7.53;3.90;;;13.40;80.60;;;;;;5092718;28;20086;-61
2022/01/13 06:50:16;;;;;;;6.85;3.50;;;13.90;79.40;;;;;;5075713;28;20063;-61
2022/01/13 06:52:44;;;;;;;5.38;3.00;;;14.50;78.20;;;;;;5075786;28;20040;-61
2022/01/13 06:55:12;;;;;;;5.50;4.03;;;15.00;76.80;;;;;;5093427;28;20059;-62
2022/01/13 06:57:39;;;;;;;9.32;3.80;;;15.40;75.80;;;;;;5059177;28;20371;-61
2022/01/13 07:00:08;;;;;;;11.73;3.17;;;15.90;74.70;;;;;;5092357;28;20040;-62
2022/01/13 07:02:36;;;;;;;8.00;3.60;;;16.20;73.80;;;;;;5075317;28;20036;-62
2022/01/13 07:05:04;;;;;;;6.32;3.03;;;16.70;73.30;;;;;;5075713;28;20052;-62
2022/01/13 07:07:35;;;;;;;6.88;3.03;;;17.10;72.60;;;;;;5075414;28;20040;-62
2022/01/13 07:10:06;;;;;;;6.53;3.63;;;17.40;72.00;;;;;;5075542;28;20052;-62
2022/01/13 07:12:34;;;;;;;6.50;3.35;;;17.70;71.40;;;;;;5093394;28;20044;-62
2022/01/13 07:15:01;;;;;;;6.20;3.00;;;18.20;70.70;;;;;;5093338;28;20490;-61
2022/01/13 07:17:30;;;;;;;8.20;3.92;;;18.50;69.50;;;;;;5094886;28;20044;-61
2022/01/13 07:19:59;;;;;;;10.13;4.05;;;18.70;68.90;;;;;;5097649;28;20047;-61
2022/01/13 07:22:27;;;;;;;8.98;3.40;;;18.90;68.20;;;;;;5079170;28;20441;-62
2022/01/13 07:24:54;;;;;;;6.32;3.08;;;19.20;67.80;;;;;;5097579;28;20036;-61
2022/01/13 07:27:22;;;;;;;6.78;3.38;;;19.50;67.40;;;;;;5079433;28;20467;-61
2022/01/13 07:29:50;;;;;;;7.50;3.42;;;19.90;67.20;;;;;;5062652;28;20135;-62
2022/01/13 07:32:17;;;;;;;7.93;3.30;;;20.30;66.70;;;;;;5096977;28;20036;-61
2022/01/13 07:34:45;;;;;;;6.50;3.70;;;20.50;66.50;;;;;;5097161;28;20505;-61
2022/01/13 07:37:14;;;;;;;5.63;3.83;;;20.60;66.50;;;;;;5079354;28;20052;-62
2022/01/13 07:39:42;;;;;;;7.30;3.60;;;20.80;67.00;;;;;;5097314;28;20044;-61
2022/01/13 07:42:10;;;;;;;10.43;3.53;;;20.70;67.30;;;;;;5062056;28;20044;-62
2022/01/13 07:44:38;;;;;;;8.63;3.78;;;20.60;67.70;;;;;;5079361;28;20040;-62
2022/01/13 07:47:05;;;;;;;8.50;3.45;;;20.00;68.60;;;;;;5096957;28;20044;-61
2022/01/13 07:49:35;;;;;;;9.05;3.75;;;19.70;69.00;;;;;;5078761;28;20432;-62
2022/01/13 07:52:04;;;;;;;6.53;3.88;;;19.20;69.30;;;;;;5096821;28;20127;-62
2022/01/13 07:54:32;;;;;;;4.90;3.75;;;18.80;69.50;;;;;;5078454;28;20059;-62
2022/01/13 07:57:00;;;;;;;6.80;4.13;;;18.50;70.20;;;;;;5096676;28;20070;-62
2022/01/13 07:59:29;;;;;;;8.75;3.58;;;18.10;70.80;;;;;;5078357;28;20490;-62
2022/01/13 08:02:00;;;;;;;12.57;5.85;;;17.90;71.10;;;;;;5096646;28;20044;-62
2022/01/13 08:04:28;;;;;;;10.68;6.45;;;17.60;71.50;;;;;;5045509;28;20047;-62
2022/01/13 08:06:55;;;;;;;9.43;5.45;;;17.30;70.90;;;;;;5096826;28;20036;-62
2022/01/13 08:09:23;;;;;;;7.53;4.97;;;16.90;70.00;;;;;;5078573;28;20044;-62
2022/01/13 08:11:51;;;;;;;8.00;3.95;;;16.60;69.90;;;;;;5061811;28;20510;-62
2022/01/13 08:14:19;;;;;;;9.70;4.75;;;16.50;70.30;;;;;;5061823;28;20044;-62
2022/01/13 08:16:47;;;;;;;6.78;3.15;;;16.20;68.00;;;;;;5096756;28;20105;-62
2022/01/13 08:22:01;;;;;;;6.18;3.05;;;16.00;67.40;;;;;;5096301;28;20040;-62
2022/01/13 08:24:28;;;;;;;5.60;2.95;;;15.80;66.50;;;;;;5096233;28;20040;-62
2022/01/13 08:26:56;;;;;;;6.47;3.55;;;15.40;66.00;;;;;;5094683;28;20036;-62
2022/01/13 08:29:23;;;;;;;8.02;3.35;;;15.40;66.50;;;;;;5077031;28;20464;-62
2022/01/13 08:31:51;;;;;;;5.10;3.33;;;15.30;66.80;;;;;;5095912;28;20040;-61
2022/01/13 08:34:19;;;;;;;6.97;3.10;;;15.40;67.20;;;;;;5094727;28;20046;-63
2022/01/13 08:36:46;;;;;;;9.60;4.00;;;14.90;66.90;;;;;;5095810;28;20062;-62
2022/01/13 08:39:14;;;;;;;8.32;3.30;;;14.90;68.10;;;;;;5095910;28;20044;-62
2022/01/13 08:41:42;;;;;;;7.03;3.40;;;14.60;68.40;;;;;;5077855;28;20119;-62
2022/01/13 08:44:10;;;;;;;8.40;3.47;;;14.40;69.40;;;;;;5060753;28;20054;-62
2022/01/13 08:46:40;;;;;;;8.30;4.00;;;14.30;70.80;;;;;;5083198;28;20040;-64
2022/01/13 08:49:09;;;;;;;7.63;3.88;;;14.20;71.30;;;;;;5078343;28;20047;-62
2022/01/13 08:51:37;;;;;;;7.75;3.55;;;14.20;71.50;;;;;;5111011;28;20046;-63
2022/01/13 08:54:05;;;;;;;9.82;3.58;;;14.10;72.10;;;;;;5096773;28;20043;-62
2022/01/13 08:56:32;;;;;;;10.13;5.20;;;13.90;72.00;;;;;;5078602;28;20046;-62
2022/01/13 08:59:00;;;;;;;6.72;3.85;;;13.70;72.80;;;;;;5104013;28;20059;-62
2022/01/13 09:01:30;;;;;;;7.47;4.70;;;13.60;73.70;;;;;;5091843;28;20050;-62
2022/01/13 09:03:58;;;;;;;8.85;4.05;;;13.70;74.70;;;;;;5112915;28;20126;-62
2022/01/13 09:06:26;;;;;;;6.03;4.03;;;13.60;74.60;;;;;;5109688;28;20458;-62
2022/01/13 09:08:53;;;;;;;6.68;3.80;;;13.50;75.20;;;;;;5085131;27;20035;-62
2022/01/13 09:11:21;;;;;;;7.80;3.90;;;13.30;75.50;;;;;;5117117;27;20407;-62
2022/01/13 09:13:56;;;;;;;9.07;4.03;;;13.20;76.10;;;;;;5114689;28;20039;-62
2022/01/13 09:16:30;;;;;;;9.32;5.20;;;13.20;76.40;;;;;;5104063;27;20031;-62
2022/01/13 09:19:07;;;;;;;5.85;3.85;;;13.40;76.70;;;;;;5070111;28;20048;-65
2022/01/13 09:21:37;;;;;;;7.63;3.78;;;13.60;76.50;;;;;;5107714;28;20066;-62
2022/01/13 09:24:07;;;;;;;7.75;3.38;;;13.70;75.70;;;;;;5094054;28;20481;-62
2022/01/13 09:26:35;;;;;;;8.05;3.88;;;13.60;75.80;;;;;;5107886;28;20048;-62
2022/01/13 09:29:05;;;;;;;5.60;3.58;;;13.50;76.10;;;;;;5076717;28;20039;-62
2022/01/13 09:31:35;;;;;;;7.50;4.40;;;13.50;77.00;;;;;;5078634;28;20059;-62
2022/01/13 09:34:04;;;;;;;5.78;3.20;;;13.40;77.30;;;;;;5113319;28;20039;-62
2022/01/13 09:36:32;;;;;;;5.53;3.88;;;13.40;75.60;;;;;;5066437;28;20146;-62
2022/01/13 09:39:02;;;;;;;6.88;3.53;;;13.40;74.80;;;;;;5077085;28;20094;-62
2022/01/13 09:41:32;;;;;;;7.45;3.95;;;13.30;75.20;;;;;;5092195;28;20390;-62
2022/01/13 09:44:04;;;;;;;5.35;3.70;;;13.50;76.00;;;;;;5105893;27;20045;-62
2022/01/13 09:46:35;;;;;;;5.95;3.47;;;13.40;75.30;;;;;;5112908;28;20370;-63
2022/01/13 09:49:05;;;;;;;8.15;4.55;;;13.50;75.90;;;;;;5092657;28;20040;-62
2022/01/13 09:51:35;;;;;;;8.68;4.38;;;13.50;76.90;;;;;;5107065;28;20050;-62
2022/01/13 09:54:04;;;;;;;6.13;3.28;;;13.60;74.90;;;;;;5106863;28;20036;-62
2022/01/13 09:56:35;;;;;;;6.22;3.47;;;13.60;72.90;;;;;;5090384;27;20035;-63
2022/01/13 09:59:04;;;;;;;8.98;4.30;;;13.50;75.10;;;;;;5100710;28;20551;-62
2022/01/13 10:01:32;;;;;;;6.38;3.78;;;13.50;76.20;;;;;;5093960;28;20039;-62
2022/01/13 10:04:00;;;;;;;9.65;3.53;;;13.50;76.20;;;;;;5086497;27;20497;-62
2022/01/13 10:06:27;;;;;;;9.35;4.80;;;13.20;75.90;;;;;;5094781;28;20040;-62
2022/01/13 10:08:58;;;;;;;11.48;4.53;;;13.30;76.70;;;;;;5085237;28;20122;-63
2022/01/13 10:11:48;;;;;;;11.88;5.20;;;13.20;77.10;;;;;;5090404;28;20040;-61
2022/01/13 10:17:00;;;;;;;12.68;5.22;;;13.20;76.50;;;;;;5093928;28;20043;-61
2022/01/13 10:19:34;;;;;;;;;;;13.30;77.40;;;;;;5059567;28;20375;-61
2022/01/13 10:22:02;;;;;;;9.75;4.50;;;13.30;76.10;;;;;;5092938;28;19927;-61
2022/01/13 10:24:31;;;;;;;11.90;4.80;;;13.30;76.60;;;;;;5092677;28;20040;-61
2022/01/13 10:27:11;;;;;;;10.82;4.63;;;13.40;77.50;;;;;;5093507;28;20064;-62
2022/01/13 10:29:46;;;;;;;11.35;5.13;;;13.40;78.40;;;;;;5075547;28;20047;-61
2022/01/13 10:32:20;;;;;;;11.25;5.47;;;13.50;77.60;;;;;;5075700;28;20512;-62
2022/01/13 10:34:59;;;;;;;7.68;4.72;;;13.50;76.20;;;;;;5075901;28;20068;-62
2022/01/13 10:37:35;;;;;;;5.72;3.88;;;13.50;75.90;;;;;;5075797;28;20375;-62
2022/01/13 10:40:10;;;;;;;8.00;4.15;;;13.30;76.20;;;;;;5093879;28;20105;-62
2022/01/13 10:45:26;;;;;;;7.57;4.20;;;13.20;78.10;;;;;;5093904;28;20036;-62
2022/01/13 10:48:17;;;;;;;8.63;4.38;;;13.20;78.10;;;;;;5092348;28;20229;-62
2022/01/13 10:51:02;;;;;;;7.18;3.70;;;13.10;78.80;;;;;;5093652;28;20032;-62
2022/01/13 10:53:34;;;;;;;6.53;3.67;;;13.40;79.10;;;;;;5092741;28;20359;-62
2022/01/13 10:56:06;;;;;;;6.97;4.93;;;13.40;78.70;;;;;;5075514;28;20055;-62
2022/01/13 10:58:37;;;;;;;8.48;3.47;;;13.10;76.00;;;;;;5093354;28;20371;-62
2022/01/13 11:01:09;;;;;;;6.32;3.70;;;13.00;76.90;;;;;;5092387;28;20063;-62
2022/01/13 11:03:40;;;;;;;8.75;4.53;;;13.20;78.20;;;;;;5092543;28;20040;-62
2022/01/13 11:06:09;;;;;;;9.50;4.53;;;13.20;78.80;;;;;;5074992;28;20083;-62
2022/01/13 11:08:43;;;;;;;9.30;4.03;;;13.20;79.20;;;;;;5075414;28;20055;-62
2022/01/13 11:11:25;;;;;;;7.97;4.18;;;13.20;79.20;;;;;;5092173;28;20390;-63
2022/01/13 11:14:00;;;;;;;9.38;5.45;;;13.00;78.20;;;;;;5075418;28;20044;-63
2022/01/13 11:16:29;;;;;;;6.70;4.07;;;13.10;77.90;;;;;;5093203;28;20498;-62
2022/01/13 11:18:58;;;;;;;6.53;4.20;;;13.20;79.20;;;;;;5093323;28;20105;-63
2022/01/13 11:21:26;;;;;;;9.65;4.95;;;13.40;78.40;;;;;;5058245;28;20048;-62
2022/01/13 11:23:56;;;;;;;10.45;4.60;;;13.30;78.30;;;;;;5058449;28;20165;-62
2022/01/13 11:26:27;;;;;;;6.70;4.40;;;13.10;79.10;;;;;;5075159;28;20417;-62
2022/01/13 11:29:00;;;;;;;7.60;4.32;;;13.30;78.00;;;;;;5075072;28;20044;-62
2022/01/13 11:31:28;;;;;;;7.15;3.53;;;13.00;77.50;;;;;;5074347;28;20051;-62
2022/01/13 11:33:57;;;;;;;10.50;5.00;;;12.70;78.20;;;;;;5075086;28;20475;-62
2022/01/13 11:36:25;;;;;;;5.68;3.53;;;12.80;79.00;;;;;;5091943;28;20118;-62
2022/01/13 11:38:55;;;;;;;8.23;4.60;;;12.90;79.80;;;;;;5093385;28;20068;-62
2022/01/13 11:41:23;;;;;;;10.18;4.82;;;13.00;80.00;;;;;;5093353;28;20048;-62
2022/01/13 11:43:51;;;;;;;7.13;4.40;;;13.00;82.10;;;;;;5093420;28;20513;-62
2022/01/13 11:46:24;;;;;;;9.27;5.22;;;13.20;80.20;;;;;;5091764;28;20051;-62
2022/01/13 11:49:31;;;;;;;9.93;4.78;;;13.30;83.90;;;;;;5074872;28;20394;-61
2022/01/13 11:52:04;;;;;;;11.23;5.10;;;13.40;83.20;;;;;;5092796;28;20070;-62
2022/01/13 11:54:36;;;;;;;6.65;4.18;;;13.50;80.20;;;;;;5074890;28;20409;-62
2022/01/13 11:57:29;;;;;;;7.65;4.35;;;13.50;80.10;;;;;;5074758;28;20040;-62
2022/01/13 11:59:56;;;;;;;6.28;3.83;;;13.60;79.70;;;;;;5074800;28;20143;-62
2022/01/13 12:02:31;;;;;;;6.65;3.70;;;13.20;78.60;;;;;;5091773;28;20040;-62
2022/01/13 12:05:14;;;;;;;7.35;3.67;;;12.90;79.30;;;;;;5094229;28;20560;-62
2022/01/13 12:07:53;;;;;;;6.78;3.75;;;12.90;79.70;;;;;;5095245;28;20043;-62
2022/01/13 12:10:20;;;;;;;5.22;3.80;;;12.80;80.40;;;;;;5078401;28;20541;-62
2022/01/13 12:12:48;;;;;;;7.47;4.32;;;12.60;78.80;;;;;;5061555;28;20040;-63
2022/01/13 12:15:16;;;;;;;6.13;4.07;;;12.60;82.00;;;;;;5077478;28;20471;-63
2022/01/13 12:18:05;;;;;;;7.60;4.82;;;12.70;81.40;;;;;;5078252;28;20048;-62
2022/01/13 12:20:52;;;;;;;5.93;4.10;;;12.80;79.60;;;;;;5096383;28;20052;-62
2022/01/13 12:23:37;;;;;;;10.77;5.20;;;12.80;81.30;;;;;;5078285;28;20363;-62
2022/01/13 12:26:31;;;;;;;7.45;4.72;;;13.00;80.10;;;;;;5078407;28;20363;-62
2022/01/13 12:29:28;;;;;;;7.97;4.53;;;13.10;80.60;;;;;;5070805;28;20165;-62
2022/01/13 12:32:03;;;;;;;7.80;4.50;;;13.20;81.10;;;;;;5077946;28;20064;-62
2022/01/13 12:34:35;;;;;;;12.10;5.72;;;13.00;77.60;;;;;;5078063;28;20074;-62
2022/01/13 12:37:12;;;;;;;6.18;3.95;;;13.00;77.80;;;;;;5077864;28;20394;-62
2022/01/13 12:39:45;;;;;;;8.63;3.63;;;12.80;77.90;;;;;;5094831;28;20040;-62
2022/01/13 12:42:22;;;;;;;9.75;4.88;;;12.70;77.40;;;;;;5094612;28;20048;-62
2022/01/13 12:47:37;;;;;;;9.45;4.75;;;12.80;78.40;;;;;;5094786;28;20044;-62
2022/01/13 12:50:17;;;;;;;7.60;4.55;;;12.70;78.50;;;;;;5060860;28;20082;-62
2022/01/13 12:52:45;;;;;;;7.35;4.35;;;12.60;78.10;;;;;;5077911;28;20058;-62
2022/01/13 12:55:13;;;;;;;8.13;5.30;;;12.60;78.40;;;;;;5094089;28;20054;-62
2022/01/13 12:57:47;;;;;;;6.40;4.18;;;12.60;78.10;;;;;;5094561;28;20047;-62
2022/01/13 13:00:17;;;;;;;5.35;4.05;;;12.60;78.20;;;;;;5094368;28;20402;-62
2022/01/13 13:02:58;;;;;;;9.23;4.50;;;12.40;78.10;;;;;;5094578;28;20393;-62
2022/01/13 13:05:37;;;;;;;7.65;4.35;;;12.50;78.70;;;;;;5077603;28;20036;-62
2022/01/13 13:08:09;;;;;;;8.60;4.63;;;12.40;78.70;;;;;;5095518;28;20047;-62
2022/01/13 13:10:40;;;;;;;7.25;4.53;;;12.30;78.30;;;;;;5095379;28;20089;-62
2022/01/13 13:13:07;;;;;;;8.32;4.10;;;12.40;78.00;;;;;;5094430;28;20050;-62
2022/01/13 13:18:03;;;;;;;6.63;3.72;;;12.30;76.90;;;;;;5095311;28;20398;-62
2022/01/13 13:20:36;;;;;;;6.32;4.30;;;12.10;76.70;;;;;;5095087;28;20044;-62
2022/01/13 13:23:06;;;;;;;7.10;4.30;;;12.10;76.30;;;;;;5093482;28;20043;-62
2022/01/13 13:25:38;;;;;;;5.80;3.72;;;12.10;76.90;;;;;;5095128;28;20117;-62
2022/01/13 13:28:27;;;;;;;8.27;4.68;;;12.10;77.20;;;;;;5093801;28;20051;-62
2022/01/13 13:30:57;;;;;;;9.38;5.15;;;12.20;77.50;;;;;;5073983;28;20048;-64
2022/01/13 13:33:46;;;;;;;10.95;5.90;;;12.10;77.20;;;;;;5080992;28;20040;-62
2022/01/13 13:36:26;;;;;;;8.00;4.47;;;12.20;76.60;;;;;;5088648;28;20532;-62
2022/01/13 13:38:58;;;;;;;9.32;4.07;;;12.10;75.20;;;;;;5114446;28;20039;-63
2022/01/13 13:41:27;;;;;;;8.35;4.95;;;12.00;75.30;;;;;;5086419;27;20043;-62
2022/01/13 13:44:12;;;;;;;10.65;4.22;;;12.10;75.80;;;;;;5094608;28;20106;-62
2022/01/13 13:46:43;;;;;;;8.32;4.43;;;12.10;75.60;;;;;;5109791;28;20043;-62
2022/01/13 13:49:11;;;;;;;8.77;3.88;;;12.00;74.90;;;;;;5094279;28;20078;-64
2022/01/13 13:51:39;;;;;;;10.40;5.18;;;12.00;74.50;;;;;;5094544;28;20046;-62
2022/01/13 13:54:29;;;;;;;8.73;4.97;;;12.00;74.30;;;;;;5094943;28;20447;-63